Time;durP1;ratioP1;P1;durP2;ratioP2;P2;SDS_P1;SDS_P2;PMS_P1;PMS_P2;Temp;Humidity;BMP_temperature;BMP_pressure;BME280_temperature;BME280_humidity;BME280_pressure;Samples;Min_cycle;Max_cycle;Signal;HPM_P1;HPM_P2
2022/01/22 00:00:46;;;;;;;5.80;0.93;;;2.30;65.80;;;;;;5086122;28;20108;-75
2022/01/22 00:03:12;;;;;;;3.72;1.10;;;2.30;65.90;;;;;;5088020;28;20466;-75
2022/01/22 00:05:37;;;;;;;7.82;0.90;;;2.20;66.20;;;;;;5087042;28;20035;-76
2022/01/22 00:08:04;;;;;;;2.60;0.95;;;2.30;65.50;;;;;;5087728;28;20051;-75
2022/01/22 00:10:30;;;;;;;4.65;1.45;;;2.20;65.90;;;;;;5087515;28;20032;-76
2022/01/22 00:14:23;;;;;;;2.17;0.70;;;2.10;66.40;;;;;;5087484;28;20028;-75
2022/01/22 00:15:42;;;;;;;2.38;0.32;;;1.90;66.70;;;;;;5087405;28;20036;-75
2022/01/22 00:18:08;;;;;;;1.48;0.20;;;1.70;67.20;;;;;;5088197;28;20028;-75
2022/01/22 00:20:36;;;;;;;13.05;1.17;;;1.90;66.70;;;;;;5087700;28;20036;-75
2022/01/22 00:23:06;;;;;;;2.05;0.65;;;2.50;65.10;;;;;;5087405;28;20032;-75
2022/01/22 00:25:32;;;;;;;1.88;0.32;;;2.40;65.60;;;;;;5087199;28;20035;-75
2022/01/22 00:28:00;;;;;;;1.98;0.85;;;2.20;66.30;;;;;;5086488;28;20028;-75
2022/01/22 00:30:26;;;;;;;1.35;0.60;;;2.30;65.70;;;;;;5087077;28;20043;-75
2022/01/22 00:32:53;;;;;;;5.60;1.77;;;2.20;66.20;;;;;;5087459;28;20020;-75
2022/01/22 00:35:20;;;;;;;9.52;2.40;;;1.90;68.60;;;;;;5087275;28;20072;-76
2022/01/22 00:37:48;;;;;;;3.72;1.60;;;1.50;68.90;;;;;;5085690;28;20020;-75
2022/01/22 00:40:15;;;;;;;2.15;0.70;;;1.60;68.00;;;;;;5086096;28;20028;-75
2022/01/22 00:42:43;;;;;;;2.65;0.82;;;2.10;66.60;;;;;;5086106;28;20044;-75
2022/01/22 00:45:10;;;;;;;2.78;1.15;;;2.00;67.10;;;;;;5087111;28;20016;-75
2022/01/22 00:47:36;;;;;;;1.60;0.52;;;2.00;67.00;;;;;;5087100;28;20036;-76
2022/01/22 00:50:04;;;;;;;2.47;0.75;;;1.90;67.00;;;;;;5085960;28;20110;-75
2022/01/22 00:52:30;;;;;;;1.40;0.55;;;1.80;67.20;;;;;;5086043;28;20036;-75
2022/01/22 00:54:56;;;;;;;1.30;0.63;;;2.00;66.40;;;;;;5087224;28;20069;-75
2022/01/22 00:57:21;;;;;;;1.10;0.55;;;2.00;67.00;;;;;;5089170;28;20105;-74
2022/01/22 00:59:47;;;;;;;1.85;0.60;;;2.30;65.80;;;;;;5091967;28;20028;-75
2022/01/22 01:02:13;;;;;;;3.08;1.10;;;1.90;67.10;;;;;;5091985;28;20028;-77
2022/01/22 01:04:39;;;;;;;1.23;0.47;;;1.70;67.40;;;;;;5092015;28;20374;-75
2022/01/22 01:07:05;;;;;;;1.55;0.60;;;1.80;67.20;;;;;;5091620;28;20077;-75
2022/01/22 01:09:31;;;;;;;4.63;1.45;;;1.80;67.80;;;;;;5091436;28;20020;-75
2022/01/22 01:12:02;;;;;;;3.97;1.08;;;1.70;68.00;;;;;;5090484;28;20448;-75
2022/01/22 01:14:35;;;;;;;3.28;1.23;;;1.80;67.30;;;;;;5091331;28;20057;-75
2022/01/22 01:33:27;;;;;;;4.03;1.30;;;1.90;67.50;;;;;;5091576;28;20123;-75
2022/01/22 01:35:53;;;;;;;2.63;1.15;;;1.70;68.00;;;;;;5091518;28;20024;-75
2022/01/22 01:38:21;;;;;;;1.50;0.65;;;1.60;68.10;;;;;;5091307;28;20069;-74
2022/01/22 01:40:56;;;;;;;3.60;1.30;;;1.50;68.10;;;;;;5091253;28;20024;-75
2022/01/22 01:43:27;;;;;;;2.92;1.23;;;1.60;68.30;;;;;;5090980;28;20662;-74
2022/01/22 01:45:53;;;;;;;1.45;0.85;;;1.60;68.70;;;;;;5091269;28;20024;-74
2022/01/22 01:48:24;;;;;;;1.65;0.77;;;1.60;68.20;;;;;;5091147;28;20031;-74
2022/01/22 01:50:50;;;;;;;4.90;0.80;;;1.30;68.50;;;;;;5091142;28;20024;-75
2022/01/22 01:53:43;;;;;;;2.60;0.70;;;1.20;69.30;;;;;;5090124;28;20486;-74
2022/01/22 01:57:27;;;;;;;3.40;0.95;;;1.30;69.20;;;;;;5090563;28;20086;-75
2022/01/22 01:58:55;;;;;;;1.85;0.75;;;1.30;68.90;;;;;;5089707;28;20047;-74
2022/01/22 02:01:21;;;;;;;3.10;0.80;;;1.40;69.00;;;;;;5090812;28;20024;-75
2022/01/22 02:03:47;;;;;;;2.45;1.23;;;1.30;69.10;;;;;;5090939;28;20378;-74
2022/01/22 02:06:13;;;;;;;1.67;1.00;;;1.20;69.70;;;;;;5090730;28;20515;-75
2022/01/22 02:08:39;;;;;;;1.50;0.73;;;1.20;69.30;;;;;;5091298;28;20496;-74
2022/01/22 02:11:06;;;;;;;0.95;0.47;;;1.30;69.40;;;;;;5090626;28;20371;-74
2022/01/22 02:13:41;;;;;;;1.55;0.47;;;1.30;69.00;;;;;;5090830;28;20024;-74
2022/01/22 02:24:49;;;;;;;0.50;0.30;;;1.50;68.70;;;;;;5090725;28;20051;-75
2022/01/22 02:27:15;;;;;;;2.95;0.93;;;1.40;69.30;;;;;;5090696;28;20028;-74
2022/01/22 02:29:41;;;;;;;2.20;1.02;;;1.30;69.50;;;;;;5094712;28;20055;-75
2022/01/22 02:34:59;;;;;;;1.65;0.68;;;1.20;69.60;;;;;;5094699;28;20068;-75
2022/01/22 02:37:31;;;;;;;1.85;0.90;;;1.10;70.00;;;;;;5094362;28;20031;-75
2022/01/22 02:40:06;;;;;;;2.55;1.05;;;1.10;70.10;;;;;;5094307;28;20397;-75
2022/01/22 02:42:34;;;;;;;2.17;0.88;;;1.10;70.20;;;;;;5076270;28;20378;-75
2022/01/22 02:45:03;;;;;;;2.25;0.57;;;1.10;70.00;;;;;;5094417;28;20024;-74
2022/01/22 02:47:29;;;;;;;3.22;0.98;;;1.10;70.30;;;;;;5094160;28;20020;-75
2022/01/22 02:49:54;;;;;;;1.98;0.93;;;1.10;70.10;;;;;;5094466;28;20077;-74
2022/01/22 02:52:20;;;;;;;1.63;0.70;;;1.10;70.00;;;;;;5094057;28;20102;-75
2022/01/22 02:54:46;;;;;;;1.85;0.63;;;1.10;70.00;;;;;;5094090;28;20024;-74
2022/01/22 02:57:13;;;;;;;2.40;1.05;;;1.10;70.50;;;;;;5094282;28;20020;-74
2022/01/22 02:59:40;;;;;;;2.10;0.80;;;1.00;70.40;;;;;;5094389;28;20103;-75
2022/01/22 03:02:06;;;;;;;2.45;0.88;;;1.10;70.00;;;;;;5094414;28;20104;-75
2022/01/22 03:04:32;;;;;;;2.17;0.73;;;1.00;70.40;;;;;;5094131;28;20039;-75
2022/01/22 03:06:58;;;;;;;3.05;0.75;;;1.00;70.60;;;;;;5094156;28;20536;-75
2022/01/22 03:09:30;;;;;;;7.05;1.33;;;1.00;70.20;;;;;;5093777;28;20398;-75
2022/01/22 03:22:52;;;;;;;2.67;1.10;;;1.00;70.40;;;;;;5094079;28;20485;-75
2022/01/22 03:27:59;;;;;;;3.42;1.27;;;0.90;70.70;;;;;;5094271;28;20075;-74
2022/01/22 03:30:25;;;;;;;2.33;0.70;;;0.90;70.60;;;;;;5093567;28;20083;-74
2022/01/22 03:32:54;;;;;;;2.78;1.13;;;0.90;70.50;;;;;;5079950;28;20036;-75
2022/01/22 03:37:51;;;;;;;2.28;0.88;;;1.00;70.30;;;;;;5073736;28;20097;-75
2022/01/22 03:40:18;;;;;;;3.45;0.88;;;1.00;70.40;;;;;;5072274;28;20063;-75
2022/01/22 03:42:44;;;;;;;2.75;1.02;;;1.00;70.50;;;;;;5073594;28;20585;-75
2022/01/22 03:45:11;;;;;;;2.17;1.00;;;1.00;70.40;;;;;;5073044;28;20048;-75
2022/01/22 03:47:38;;;;;;;5.65;1.02;;;1.10;69.50;;;;;;5073046;28;20036;-75
2022/01/22 03:50:04;;;;;;;2.70;1.00;;;1.00;69.70;;;;;;5073157;28;20082;-75
2022/01/22 03:52:30;;;;;;;3.75;1.58;;;1.00;69.80;;;;;;5073085;28;20403;-75
2022/01/22 03:54:56;;;;;;;3.20;0.80;;;0.90;70.80;;;;;;5072736;28;20046;-75
2022/01/22 03:57:23;;;;;;;3.17;1.08;;;0.70;70.70;;;;;;5072922;28;20594;-75
2022/01/22 03:59:50;;;;;;;5.07;1.10;;;0.70;71.00;;;;;;5073069;28;20112;-75
2022/01/22 04:03:22;;;;;;;1.67;0.80;;;0.50;71.30;;;;;;5083621;28;20127;-74
2022/01/22 04:05:06;;;;;;;1.58;0.68;;;0.60;71.30;;;;;;5052767;28;20744;-75
2022/01/22 04:10:07;;;;;;;1.95;0.80;;;0.50;71.70;;;;;;5064755;28;20036;-74
2022/01/22 04:12:51;;;;;;;2.00;0.75;;;0.60;71.10;;;;;;5064563;28;20034;-75
2022/01/22 04:15:21;;;;;;;3.70;1.40;;;0.70;71.20;;;;;;5064626;28;20683;-74
2022/01/22 04:26:13;;;;;;;2.38;1.00;;;0.60;71.20;;;;;;5087912;28;20047;-74
2022/01/22 04:28:39;;;;;;;3.03;0.88;;;0.60;71.20;;;;;;5087711;28;20028;-74
2022/01/22 04:31:05;;;;;;;2.65;1.10;;;0.60;71.20;;;;;;5069761;28;20054;-74
2022/01/22 04:33:30;;;;;;;2.58;1.10;;;0.70;70.60;;;;;;5087570;28;20035;-75
2022/01/22 04:35:56;;;;;;;2.42;1.15;;;0.60;70.70;;;;;;5087948;28;20080;-75
2022/01/22 04:38:22;;;;;;;2.00;0.63;;;0.60;70.60;;;;;;5087455;28;20028;-75
2022/01/22 04:40:47;;;;;;;2.67;0.77;;;0.70;71.00;;;;;;5087758;28;20608;-75
2022/01/22 04:43:13;;;;;;;2.70;0.90;;;0.40;71.50;;;;;;5087439;28;20127;-76
2022/01/22 04:45:53;;;;;;;8.35;1.20;;;0.30;71.70;;;;;;5086849;28;20028;-75
2022/01/22 04:56:18;;;;;;;5.65;1.88;;;0.20;71.80;;;;;;5087186;28;20619;-75
2022/01/22 04:58:44;;;;;;;3.05;1.42;;;0.20;72.10;;;;;;5085326;28;20032;-75
2022/01/22 05:01:10;;;;;;;3.25;1.30;;;0.10;72.60;;;;;;5084143;28;20508;-75
2022/01/22 05:03:36;;;;;;;4.38;1.13;;;-0.10;73.20;;;;;;5083981;28;20085;-75
2022/01/22 05:06:06;;;;;;;2.17;0.90;;;0.10;72.50;;;;;;5082930;28;20133;-75
2022/01/22 05:08:32;;;;;;;2.30;1.10;;;0.40;71.50;;;;;;5083802;28;20031;-75
2022/01/22 05:10:58;;;;;;;2.10;0.85;;;0.60;71.10;;;;;;5083900;28;20031;-74
2022/01/22 05:13:23;;;;;;;2.97;1.15;;;0.50;71.20;;;;;;5084155;28;20028;-75
2022/01/22 05:15:49;;;;;;;2.65;0.90;;;0.50;71.30;;;;;;5084959;28;20028;-75
2022/01/22 05:18:15;;;;;;;2.35;0.70;;;0.60;71.00;;;;;;5084875;28;20120;-74
2022/01/22 05:20:55;;;;;;;2.58;0.82;;;0.70;70.50;;;;;;5084614;28;20024;-74
2022/01/22 05:23:24;;;;;;;2.80;1.00;;;0.50;71.90;;;;;;5084198;28;20043;-75
2022/01/22 05:25:59;;;;;;;2.50;0.85;;;0.50;71.60;;;;;;5084282;28;20115;-74
2022/01/22 05:31:39;;;;;;;2.60;0.85;;;0.50;71.30;;;;;;5084061;28;20094;-74
2022/01/22 05:37:06;;;;;;;2.42;1.10;;;0.40;71.50;;;;;;5083840;28;20040;-74
2022/01/22 05:39:34;;;;;;;1.95;0.90;;;0.30;72.70;;;;;;5084281;28;20027;-75
2022/01/22 05:42:03;;;;;;;4.32;1.40;;;0.20;72.50;;;;;;5083069;28;20106;-75
2022/01/22 05:44:32;;;;;;;2.92;1.20;;;0.40;71.60;;;;;;5084213;28;20086;-75
2022/01/22 05:47:03;;;;;;;4.10;1.40;;;0.30;71.80;;;;;;5064555;28;20395;-75
2022/01/22 05:49:31;;;;;;;2.88;1.27;;;0.20;72.10;;;;;;5083154;28;20020;-74
2022/01/22 05:51:59;;;;;;;3.17;1.27;;;0.20;72.40;;;;;;5083930;28;20016;-76
2022/01/22 05:59:39;;;;;;;3.90;1.17;;;-0.10;72.40;;;;;;5084252;28;20647;-75
2022/01/22 06:02:13;;;;;;;4.97;1.60;;;-0.10;72.70;;;;;;5084026;28;20028;-74
2022/01/22 06:04:39;;;;;;;5.30;1.50;;;-0.20;73.10;;;;;;5087815;28;20231;-75
2022/01/22 06:07:05;;;;;;;5.50;1.65;;;0.00;73.10;;;;;;5088092;28;20103;-74
2022/01/22 06:09:33;;;;;;;4.50;1.33;;;-0.10;73.80;;;;;;5087768;28;20141;-75
2022/01/22 06:14:35;;;;;;;1.65;0.70;;;-0.10;73.00;;;;;;5087785;28;20359;-75
2022/01/22 06:17:01;;;;;;;2.72;1.10;;;-0.10;73.10;;;;;;5069692;28;20478;-75
2022/01/22 06:19:27;;;;;;;4.28;1.42;;;0.00;73.30;;;;;;5087667;28;20028;-75
2022/01/22 06:21:53;;;;;;;3.92;1.17;;;0.00;73.00;;;;;;5087290;28;20055;-75
2022/01/22 06:24:20;;;;;;;5.72;1.58;;;0.10;72.60;;;;;;5087410;28;20059;-74
2022/01/22 06:26:46;;;;;;;6.55;3.50;;;0.10;72.40;;;;;;5085427;28;20020;-74
2022/01/22 06:29:12;;;;;;;4.78;1.35;;;0.10;72.30;;;;;;5086261;28;20024;-75
2022/01/22 06:31:38;;;;;;;5.80;1.30;;;0.00;73.30;;;;;;5086590;28;20035;-75
2022/01/22 06:34:04;;;;;;;3.67;1.60;;;0.10;72.50;;;;;;5087967;28;20028;-75
2022/01/22 06:36:31;;;;;;;4.82;2.03;;;0.00;72.70;;;;;;5087702;28;20028;-75
2022/01/22 06:39:21;;;;;;;5.35;2.25;;;0.10;72.50;;;;;;5069417;28;20115;-75
2022/01/22 06:41:44;;;;;;;2.78;1.40;;;0.20;72.50;;;;;;5086527;28;20390;-74
2022/01/22 06:44:16;;;;;;;3.63;1.48;;;0.10;72.60;;;;;;5087374;28;20032;-75
2022/01/22 06:46:43;;;;;;;2.35;1.20;;;0.10;73.10;;;;;;5069043;28;20076;-75
2022/01/22 06:49:09;;;;;;;4.13;1.30;;;0.00;73.40;;;;;;5087348;28;20497;-74
2022/01/22 06:51:35;;;;;;;4.65;1.92;;;-0.10;75.00;;;;;;5087225;28;20023;-75
2022/01/22 06:54:06;;;;;;;3.92;1.40;;;-0.20;75.10;;;;;;5068932;28;20596;-75
2022/01/22 06:56:32;;;;;;;2.08;0.95;;;-0.30;75.30;;;;;;5087099;28;20028;-75
2022/01/22 06:58:58;;;;;;;2.17;0.60;;;-0.40;74.50;;;;;;5087708;28;20028;-75
2022/01/22 07:01:26;;;;;;;3.80;1.13;;;-0.30;74.00;;;;;;5087588;28;20032;-74
2022/01/22 07:03:52;;;;;;;4.55;1.20;;;-0.20;73.50;;;;;;5088078;28;20035;-75
2022/01/22 07:06:18;;;;;;;2.78;1.10;;;-0.10;73.20;;;;;;5087922;28;20103;-75
2022/01/22 07:08:44;;;;;;;6.75;1.70;;;0.00;73.40;;;;;;5089033;28;20181;-75
2022/01/22 07:11:10;;;;;;;2.47;0.85;;;0.00;73.80;;;;;;5089078;28;20020;-74
2022/01/22 07:13:37;;;;;;;3.55;1.25;;;0.00;72.50;;;;;;5092098;28;20095;-75
2022/01/22 07:16:04;;;;;;;2.60;1.25;;;0.00;72.80;;;;;;5091560;28;20024;-74
2022/01/22 07:18:30;;;;;;;1.90;0.90;;;0.10;73.00;;;;;;5093116;28;20070;-74
2022/01/22 07:20:56;;;;;;;3.03;0.82;;;0.10;72.90;;;;;;5092377;28;20024;-74
2022/01/22 07:26:00;;;;;;;4.22;1.63;;;0.20;73.50;;;;;;5090066;28;20043;-75
2022/01/22 07:28:26;;;;;;;3.13;1.00;;;0.20;72.60;;;;;;5089923;28;20028;-74
2022/01/22 07:30:52;;;;;;;4.28;1.10;;;0.20;73.40;;;;;;5090028;28;20048;-74
2022/01/22 07:33:20;;;;;;;2.97;0.93;;;0.10;72.90;;;;;;5089612;28;20012;-74
2022/01/22 07:35:46;;;;;;;3.03;1.25;;;0.10;74.20;;;;;;5089480;28;20107;-74
2022/01/22 07:38:12;;;;;;;4.03;1.52;;;0.10;73.70;;;;;;5089648;28;20023;-75
2022/01/22 07:40:38;;;;;;;4.30;2.20;;;-0.10;74.00;;;;;;5089498;28;20024;-74
2022/01/22 07:43:04;;;;;;;3.15;1.02;;;0.00;73.90;;;;;;5089402;28;20036;-75
2022/01/22 07:45:30;;;;;;;2.97;1.23;;;-0.20;74.30;;;;;;5089114;28;20054;-75
2022/01/22 07:47:55;;;;;;;3.45;1.13;;;-0.30;74.70;;;;;;5089358;28;20575;-74
2022/01/22 07:50:21;;;;;;;5.50;1.20;;;-0.30;75.20;;;;;;5089137;28;20024;-74
2022/01/22 07:52:47;;;;;;;4.05;1.30;;;0.00;74.20;;;;;;5070961;28;20107;-74
2022/01/22 07:55:13;;;;;;;3.03;1.23;;;0.10;73.80;;;;;;5089075;28;20028;-75
2022/01/22 07:57:38;;;;;;;2.70;1.20;;;0.10;74.30;;;;;;5089127;28;20390;-75
2022/01/22 08:00:06;;;;;;;2.17;1.15;;;0.20;73.80;;;;;;5071031;28;20016;-74
2022/01/22 08:02:32;;;;;;;3.33;1.00;;;0.30;73.10;;;;;;5088987;28;20256;-75
2022/01/22 08:04:58;;;;;;;4.68;1.05;;;0.20;73.20;;;;;;5088873;28;20059;-75
2022/01/22 08:07:23;;;;;;;5.68;1.38;;;0.20;72.60;;;;;;5088855;28;20477;-75
2022/01/22 08:09:50;;;;;;;4.35;1.42;;;0.30;73.10;;;;;;5088606;28;20024;-75
2022/01/22 08:12:17;;;;;;;4.05;1.65;;;0.20;74.60;;;;;;5088961;28;20042;-74
2022/01/22 08:14:43;;;;;;;2.80;1.00;;;0.00;76.00;;;;;;5088549;28;20028;-75
2022/01/22 08:17:09;;;;;;;2.70;1.42;;;0.10;73.90;;;;;;5088515;28;20081;-74
2022/01/22 08:19:35;;;;;;;3.25;1.02;;;0.30;73.30;;;;;;5088714;28;20024;-74
2022/01/22 08:22:01;;;;;;;2.65;0.63;;;0.50;71.80;;;;;;5088576;28;20848;-75
2022/01/22 08:24:27;;;;;;;2.10;0.77;;;0.60;71.50;;;;;;5088144;28;20028;-75
2022/01/22 08:29:31;;;;;;;9.18;4.10;;;0.70;72.40;;;;;;5088226;28;20044;-75
2022/01/22 08:32:09;;;;;;;2.92;1.60;;;0.70;71.80;;;;;;5088323;28;20077;-75
2022/01/22 08:37:20;;;;;;;64.88;31.88;;;0.60;73.30;;;;;;5088188;28;20032;-75
2022/01/22 08:39:45;;;;;;;39.17;19.48;;;0.60;73.60;;;;;;5088437;28;20016;-74
2022/01/22 08:42:11;;;;;;;20.23;10.57;;;0.60;73.50;;;;;;5088190;28;20024;-75
2022/01/22 08:44:40;;;;;;;9.63;4.75;;;0.50;73.30;;;;;;5087937;28;20072;-74
2022/01/22 08:47:06;;;;;;;7.65;3.47;;;0.30;74.40;;;;;;5088219;28;20115;-74
2022/01/22 08:49:32;;;;;;;4.35;2.05;;;0.30;74.90;;;;;;5088014;28;20032;-75
2022/01/22 08:51:57;;;;;;;6.88;2.72;;;0.30;74.30;;;;;;5088068;28;20665;-74
2022/01/22 08:54:23;;;;;;;4.82;1.58;;;0.30;76.80;;;;;;5087465;28;20522;-75
2022/01/22 08:56:49;;;;;;;5.13;1.17;;;0.20;77.40;;;;;;5087754;28;20044;-74
2022/01/22 08:59:15;;;;;;;5.70;1.35;;;0.10;74.80;;;;;;5085531;28;20032;-74
2022/01/22 09:01:42;;;;;;;3.90;1.27;;;0.30;73.90;;;;;;5087688;28;20456;-74
2022/01/22 09:04:09;;;;;;;2.83;1.13;;;0.40;75.00;;;;;;5087838;28;20746;-74
2022/01/22 09:06:35;;;;;;;1.90;0.80;;;0.40;73.50;;;;;;5069514;28;20111;-74
2022/01/22 09:09:12;;;;;;;3.78;2.00;;;0.50;73.50;;;;;;5088023;28;20020;-75
2022/01/22 09:11:41;;;;;;;2.58;1.02;;;0.40;74.10;;;;;;5087889;28;20051;-74
2022/01/22 09:14:10;;;;;;;3.53;1.10;;;0.30;74.20;;;;;;5087835;28;20373;-74
2022/01/22 09:16:37;;;;;;;2.42;1.30;;;0.30;73.60;;;;;;5087650;28;20024;-74
2022/01/22 09:19:10;;;;;;;7.55;1.10;;;0.40;73.00;;;;;;5087547;28;20107;-75
2022/01/22 09:21:38;;;;;;;5.97;1.27;;;0.40;73.30;;;;;;5087626;28;20115;-74
2022/01/22 09:24:05;;;;;;;6.45;1.45;;;0.40;73.80;;;;;;5087541;28;20036;-75
2022/01/22 09:26:31;;;;;;;5.07;1.20;;;0.50;73.40;;;;;;5087330;28;20492;-75
2022/01/22 09:28:59;;;;;;;5.93;1.90;;;0.50;73.60;;;;;;5087343;28;20039;-75
2022/01/22 09:31:26;;;;;;;1.45;0.75;;;0.50;74.20;;;;;;5087281;28;20032;-75
2022/01/22 09:33:55;;;;;;;2.75;1.10;;;0.50;73.60;;;;;;5087424;28;20060;-75
2022/01/22 09:36:20;;;;;;;1.88;0.85;;;0.60;72.90;;;;;;5086982;28;20027;-74
2022/01/22 09:38:46;;;;;;;3.28;1.40;;;0.70;72.90;;;;;;5086549;28;20025;-74
2022/01/22 09:41:14;;;;;;;2.85;1.77;;;0.70;72.60;;;;;;5087304;28;20032;-74
2022/01/22 09:43:40;;;;;;;1.98;0.80;;;0.70;73.00;;;;;;5087240;28;20177;-75
2022/01/22 09:46:08;;;;;;;3.08;1.15;;;0.80;71.50;;;;;;5085818;28;20114;-75
2022/01/22 09:48:33;;;;;;;2.50;1.10;;;0.90;72.60;;;;;;5086089;28;20032;-74
2022/01/22 09:50:59;;;;;;;3.92;1.23;;;0.70;73.50;;;;;;5087270;28;20051;-75
2022/01/22 09:53:25;;;;;;;5.13;1.83;;;0.70;73.10;;;;;;5087415;28;20154;-74
2022/01/22 09:55:51;;;;;;;2.47;0.80;;;0.80;72.10;;;;;;5087151;28;20394;-75
2022/01/22 09:58:17;;;;;;;3.17;1.15;;;0.90;72.60;;;;;;5086127;28;20036;-74
2022/01/22 10:00:42;;;;;;;3.28;1.30;;;1.00;72.70;;;;;;5086951;28;20378;-75
2022/01/22 10:03:20;;;;;;;3.58;1.23;;;1.00;72.30;;;;;;5087077;28;20071;-74
2022/01/22 10:05:47;;;;;;;2.60;1.00;;;1.00;73.00;;;;;;5086550;28;20020;-75
2022/01/22 10:08:17;;;;;;;4.78;1.23;;;1.10;72.20;;;;;;5085897;28;20069;-74
2022/01/22 10:10:43;;;;;;;1.65;0.70;;;1.20;72.20;;;;;;5086946;28;20628;-74
2022/01/22 10:13:09;;;;;;;3.78;1.55;;;1.30;71.50;;;;;;5086907;28;20030;-74
2022/01/22 10:15:35;;;;;;;3.20;1.13;;;1.30;72.40;;;;;;5086761;28;20108;-74
2022/01/22 10:18:02;;;;;;;2.15;0.85;;;1.20;73.90;;;;;;5086775;28;20474;-74
2022/01/22 10:20:41;;;;;;;2.13;0.65;;;1.20;74.40;;;;;;5084189;28;20054;-75
2022/01/22 10:23:21;;;;;;;2.97;1.05;;;1.30;73.00;;;;;;5084018;28;20561;-74
2022/01/22 10:25:56;;;;;;;1.90;0.82;;;1.30;72.80;;;;;;5085390;28;20387;-74
2022/01/22 10:28:23;;;;;;;2.75;1.20;;;1.40;73.00;;;;;;5085999;28;20035;-75
2022/01/22 10:30:55;;;;;;;3.90;1.20;;;1.40;73.40;;;;;;5086368;28;20131;-75
2022/01/22 10:33:34;;;;;;;3.45;1.52;;;1.50;74.50;;;;;;5086676;28;20097;-74
2022/01/22 10:36:18;;;;;;;2.80;1.27;;;1.60;74.10;;;;;;5084667;28;20024;-75
2022/01/22 10:38:53;;;;;;;3.58;1.48;;;1.70;73.90;;;;;;5084023;28;20028;-75
2022/01/22 10:41:34;;;;;;;2.72;1.15;;;1.80;73.70;;;;;;5067157;28;20032;-74
2022/01/22 10:44:01;;;;;;;2.97;1.33;;;1.90;73.50;;;;;;5086626;28;20044;-75
2022/01/22 10:49:08;;;;;;;4.85;1.80;;;2.10;72.70;;;;;;5088719;28;20039;-75
2022/01/22 10:51:49;;;;;;;4.63;1.73;;;2.20;72.90;;;;;;5091597;28;20031;-74
2022/01/22 10:54:16;;;;;;;3.38;2.17;;;2.20;72.70;;;;;;5092467;28;20420;-74
2022/01/22 10:56:42;;;;;;;5.43;2.55;;;2.40;73.20;;;;;;5090811;28;20028;-74
2022/01/22 10:59:13;;;;;;;5.18;2.70;;;2.40;72.70;;;;;;5092398;28;20017;-74
2022/01/22 11:01:48;;;;;;;4.82;2.10;;;2.60;72.80;;;;;;5090437;28;20020;-75
2022/01/22 11:04:15;;;;;;;;;;;2.60;72.60;;;;;;5090543;28;20050;-75
2022/01/22 11:06:56;;;;;;;7.40;4.55;;;2.60;72.60;;;;;;5090062;28;19908;-75
2022/01/22 11:09:23;;;;;;;9.00;5.28;;;2.60;73.10;;;;;;5090340;28;20621;-74
2022/01/22 11:11:50;;;;;;;15.48;5.05;;;2.80;73.30;;;;;;5089869;28;20107;-74
2022/01/22 11:14:17;;;;;;;8.60;3.85;;;2.80;73.10;;;;;;5090198;28;20028;-75
2022/01/22 11:16:45;;;;;;;11.35;4.90;;;2.80;72.90;;;;;;5089755;28;20028;-74
2022/01/22 11:19:14;;;;;;;7.75;3.95;;;2.90;72.60;;;;;;5089857;28;20024;-75
2022/01/22 11:21:44;;;;;;;10.70;3.40;;;3.10;73.10;;;;;;5089773;28;20141;-75
2022/01/22 11:24:19;;;;;;;5.75;3.47;;;3.10;72.70;;;;;;5089725;28;20036;-75
2022/01/22 11:26:52;;;;;;;5.70;2.88;;;3.30;73.00;;;;;;5089714;28;20035;-75
2022/01/22 11:29:28;;;;;;;4.25;2.75;;;3.50;72.80;;;;;;5089736;28;20494;-75
2022/01/22 11:31:56;;;;;;;6.80;2.42;;;3.60;72.00;;;;;;5089703;28;20370;-74
2022/01/22 11:34:31;;;;;;;8.52;4.97;;;3.70;71.80;;;;;;5089386;28;20024;-74
2022/01/22 11:37:06;;;;;;;8.63;4.20;;;3.70;71.30;;;;;;5089675;28;20103;-75
2022/01/22 11:39:33;;;;;;;7.20;2.72;;;3.70;71.30;;;;;;5089664;28;20028;-75
2022/01/22 11:41:59;;;;;;;5.88;2.88;;;3.80;71.80;;;;;;5089848;28;20039;-74
2022/01/22 11:44:39;;;;;;;9.32;3.05;;;3.90;72.50;;;;;;5089377;28;20096;-75
2022/01/22 11:47:14;;;;;;;4.93;2.58;;;4.10;72.40;;;;;;5089592;28;20023;-75
2022/01/22 11:50:00;;;;;;;4.78;2.92;;;4.10;72.00;;;;;;5089158;28;20024;-76
2022/01/22 11:52:29;;;;;;;6.78;2.90;;;4.10;70.90;;;;;;5089388;28;20023;-75
2022/01/22 11:55:12;;;;;;;6.03;3.00;;;4.30;71.60;;;;;;5089638;28;20016;-75
2022/01/22 11:57:39;;;;;;;6.88;3.42;;;4.20;71.30;;;;;;5089197;28;20028;-74
2022/01/22 12:00:25;;;;;;;21.33;9.00;;;4.30;70.90;;;;;;5088720;28;20028;-74
2022/01/22 12:03:08;;;;;;;10.60;3.92;;;4.40;71.40;;;;;;5089093;28;20044;-75
2022/01/22 12:05:53;;;;;;;15.23;8.98;;;4.60;71.20;;;;;;5089127;28;20028;-74
2022/01/22 12:08:23;;;;;;;7.55;3.67;;;4.80;71.30;;;;;;5089403;28;20085;-74
2022/01/22 12:16:40;;;;;;;10.35;5.85;;;4.90;70.40;;;;;;5089254;28;20408;-74
2022/01/22 12:19:41;;;;;;;23.52;12.80;;;5.00;70.90;;;;;;5089209;28;20036;-75
2022/01/22 12:22:30;;;;;;;9.90;5.07;;;5.10;70.50;;;;;;5082337;28;20032;-75
2022/01/22 12:24:55;;;;;;;7.53;3.00;;;5.10;70.30;;;;;;5088833;28;20036;-75
2022/01/22 12:27:48;;;;;;;8.30;4.97;;;5.10;70.10;;;;;;5070331;28;20082;-75
2022/01/22 12:30:16;;;;;;;9.88;4.47;;;5.30;70.20;;;;;;5084216;28;20043;-75
2022/01/22 12:32:51;;;;;;;5.80;2.00;;;5.40;70.20;;;;;;5088523;28;20073;-75
2022/01/22 12:35:38;;;;;;;7.45;2.97;;;5.40;70.60;;;;;;5070394;28;20591;-74
2022/01/22 12:38:20;;;;;;;6.80;2.53;;;5.50;71.00;;;;;;5088380;28;20462;-75
2022/01/22 12:40:47;;;;;;;10.55;3.25;;;5.60;69.90;;;;;;5070267;28;20039;-75
2022/01/22 12:43:25;;;;;;;18.48;13.00;;;5.70;70.70;;;;;;5087967;28;20556;-74
2022/01/22 12:45:56;;;;;;;6.43;3.15;;;5.90;70.40;;;;;;5088322;28;20028;-74
2022/01/22 12:48:22;;;;;;;4.95;2.42;;;5.70;69.20;;;;;;5069989;28;20016;-75
2022/01/22 12:50:48;;;;;;;7.13;2.92;;;5.60;69.20;;;;;;5070400;28;20035;-75
2022/01/22 12:53:17;;;;;;;9.68;3.83;;;5.70;69.80;;;;;;5088454;28;20588;-75
2022/01/22 12:56:00;;;;;;;12.45;6.70;;;5.80;69.40;;;;;;5087989;28;20035;-75
2022/01/22 12:58:32;;;;;;;18.20;2.90;;;6.10;69.80;;;;;;5087245;28;20024;-75
2022/01/22 13:01:22;;;;;;;4.15;2.25;;;6.10;69.30;;;;;;5088201;28;20389;-74
2022/01/22 13:03:51;;;;;;;4.30;1.55;;;6.20;68.80;;;;;;5088222;28;20428;-75
2022/01/22 13:06:18;;;;;;;4.28;2.03;;;6.20;68.20;;;;;;5087684;28;20410;-75
2022/01/22 13:08:44;;;;;;;9.05;4.88;;;6.30;69.50;;;;;;5088097;28;20055;-75
2022/01/22 13:11:11;;;;;;;4.07;2.28;;;6.40;67.70;;;;;;5087913;28;20070;-75
2022/01/22 13:13:39;;;;;;;4.13;2.25;;;6.50;67.50;;;;;;5087749;28;20044;-74
2022/01/22 13:16:16;;;;;;;4.57;2.15;;;6.50;67.70;;;;;;5069282;28;20081;-75
2022/01/22 13:18:46;;;;;;;4.28;1.85;;;6.50;68.00;;;;;;5087054;28;20028;-75
2022/01/22 13:21:14;;;;;;;4.07;1.85;;;6.50;68.20;;;;;;5087894;28;20525;-74
2022/01/22 13:23:40;;;;;;;3.15;1.60;;;6.50;68.40;;;;;;5087632;28;20028;-75
2022/01/22 13:26:07;;;;;;;9.43;2.17;;;6.40;67.70;;;;;;5088031;28;20046;-75
2022/01/22 13:28:34;;;;;;;3.63;1.40;;;6.50;67.90;;;;;;5087540;28;20055;-74
2022/01/22 13:31:08;;;;;;;19.30;2.63;;;6.60;67.80;;;;;;5087277;28;20405;-75
2022/01/22 13:49:27;;;;;;;4.10;1.55;;;6.80;68.60;;;;;;5087956;28;20100;-75
2022/01/22 13:52:05;;;;;;;5.53;1.95;;;6.80;67.70;;;;;;5087535;28;20028;-75
2022/01/22 13:54:42;;;;;;;5.72;2.25;;;6.70;67.70;;;;;;5086974;28;20028;-75
2022/01/22 13:57:14;;;;;;;5.40;1.98;;;6.90;68.30;;;;;;5087148;28;20036;-75
2022/01/22 13:59:43;;;;;;;3.53;1.58;;;7.10;68.20;;;;;;5068876;28;20043;-74
2022/01/22 14:04:54;;;;;;;4.85;2.03;;;7.20;67.40;;;;;;5087014;28;20044;-75
2022/01/22 14:07:46;;;;;;;3.83;1.67;;;7.10;67.50;;;;;;5087210;28;20020;-75
2022/01/22 14:10:12;;;;;;;5.10;1.92;;;7.10;67.20;;;;;;5087545;28;20056;-75
2022/01/22 14:12:51;;;;;;;4.25;2.00;;;7.00;67.80;;;;;;5086935;28;20060;-75
2022/01/22 14:15:23;;;;;;;4.07;1.52;;;7.00;67.80;;;;;;5087248;28;20106;-76
2022/01/22 14:18:22;;;;;;;5.63;1.75;;;7.00;67.70;;;;;;5087326;28;20016;-75
2022/01/22 14:20:54;;;;;;;8.07;2.17;;;7.10;68.60;;;;;;5087184;28;20016;-75
2022/01/22 14:23:23;;;;;;;6.53;2.28;;;7.10;67.90;;;;;;5086657;28;20066;-75
2022/01/22 14:26:16;;;;;;;6.35;2.95;;;7.00;68.20;;;;;;5090941;28;20485;-75
2022/01/22 14:28:47;;;;;;;7.68;2.33;;;7.40;68.50;;;;;;5089122;28;20044;-74
2022/01/22 14:31:35;;;;;;;5.43;2.30;;;7.40;68.50;;;;;;5092364;28;20075;-75
2022/01/22 14:34:24;;;;;;;6.13;2.65;;;7.50;69.50;;;;;;5091931;28;20067;-74
2022/01/22 14:36:49;;;;;;;5.15;2.50;;;7.50;68.50;;;;;;5073369;28;20036;-75
2022/01/22 14:39:30;;;;;;;11.48;4.65;;;7.70;69.90;;;;;;5090973;28;20028;-75
2022/01/22 14:44:48;;;;;;;7.82;2.38;;;7.80;68.60;;;;;;5090761;28;20104;-75
2022/01/22 14:47:22;;;;;;;3.63;1.92;;;7.80;69.80;;;;;;5090815;28;20035;-75
2022/01/22 14:49:50;;;;;;;7.17;3.23;;;7.90;69.80;;;;;;5090929;28;20486;-75
2022/01/22 14:52:19;;;;;;;5.35;2.55;;;7.90;69.30;;;;;;5070502;28;20047;-75
2022/01/22 14:54:47;;;;;;;5.60;2.30;;;7.40;68.80;;;;;;5089539;28;20024;-75
2022/01/22 14:57:14;;;;;;;8.85;2.10;;;7.20;68.90;;;;;;5089632;28;20068;-75
2022/01/22 14:59:42;;;;;;;4.90;1.92;;;7.20;69.70;;;;;;5089496;28;20149;-75
2022/01/22 15:02:09;;;;;;;5.45;2.17;;;7.30;70.30;;;;;;5089741;28;20020;-75